Time;durP1;ratioP1;P1;durP2;ratioP2;P2;SDS_P1;SDS_P2;PMS_P1;PMS_P2;Temp;Humidity;BMP_temperature;BMP_pressure;BME280_temperature;BME280_humidity;BME280_pressure;Samples;Min_cycle;Max_cycle;Signal;HPM_P1;HPM_P2
2023/02/14 00:00:11;;;;;;;50.67;29.17;;;6.00;99.90;;;;;;2082708;28;20095;-83
2023/02/14 00:01:15;;;;;;;46.58;27.73;;;6.00;99.90;;;;;;2094364;28;20032;-80
2023/02/14 00:02:17;;;;;;;47.53;28.20;;;6.00;99.90;;;;;;2081761;28;20033;-80
2023/02/14 00:03:18;;;;;;;45.75;27.50;;;6.00;99.90;;;;;;2081911;28;20041;-81
2023/02/14 00:04:19;;;;;;;49.80;28.40;;;6.00;99.90;;;;;;2080621;28;20029;-80
2023/02/14 00:05:19;;;;;;;47.53;28.17;;;5.90;99.90;;;;;;2075605;28;20033;-81
2023/02/14 00:06:20;;;;;;;50.05;28.83;;;6.00;99.90;;;;;;2081861;28;20037;-80
2023/02/14 00:07:20;;;;;;;47.20;28.15;;;6.00;99.90;;;;;;2066394;28;20057;-81
2023/02/14 00:08:21;;;;;;;45.17;26.95;;;6.00;99.90;;;;;;2074961;28;20040;-81
2023/02/14 00:09:22;;;;;;;56.00;30.30;;;6.00;99.90;;;;;;2067501;28;20038;-80
2023/02/14 00:10:22;;;;;;;63.15;33.30;;;6.00;99.90;;;;;;2067109;28;20034;-79
2023/02/14 00:11:23;;;;;;;77.00;37.20;;;6.00;99.90;;;;;;2089045;28;20107;-81
2023/02/14 00:12:23;;;;;;;78.68;37.70;;;6.00;99.90;;;;;;2090097;28;20082;-80
2023/02/14 00:13:24;;;;;;;79.10;38.03;;;6.00;99.90;;;;;;2073648;28;20405;-81
2023/02/14 00:15:44;;;;;;;78.45;37.38;;;6.00;99.90;;;;;;2075025;28;20474;-81
2023/02/14 00:16:45;;;;;;;74.80;36.35;;;6.00;99.90;;;;;;2077576;28;20033;-82
2023/02/14 00:17:46;;;;;;;71.28;35.30;;;6.00;99.90;;;;;;2076579;28;20083;-81
2023/02/14 00:19:02;;;;;;;66.95;35.13;;;6.00;99.90;;;;;;2071089;28;20108;-81
2023/02/14 00:20:02;;;;;;;65.32;33.92;;;6.00;99.90;;;;;;2074686;28;20030;-82
2023/02/14 00:21:03;;;;;;;61.35;32.85;;;6.00;99.90;;;;;;2077313;28;20695;-81
2023/02/14 00:22:04;;;;;;;60.38;32.78;;;6.00;99.90;;;;;;2084938;28;20029;-81
2023/02/14 00:23:05;;;;;;;53.45;30.83;;;6.00;99.90;;;;;;2095133;28;20046;-82
2023/02/14 00:24:14;;;;;;;52.08;30.88;;;6.00;99.90;;;;;;2080019;28;20081;-82
2023/02/14 00:25:15;;;;;;;50.50;29.00;;;6.00;99.90;;;;;;2079590;28;20155;-82
2023/02/14 00:26:16;;;;;;;45.80;27.77;;;6.10;99.90;;;;;;2085136;28;20395;-82
2023/02/14 00:27:17;;;;;;;49.70;28.67;;;6.10;99.90;;;;;;2087314;28;20033;-82
2023/02/14 00:28:20;;;;;;;44.22;27.50;;;6.00;99.90;;;;;;2071856;28;20029;-82
2023/02/14 00:29:23;;;;;;;45.13;27.23;;;6.10;99.90;;;;;;2081021;28;20034;-82
2023/02/14 00:30:24;;;;;;;49.83;29.00;;;6.10;99.90;;;;;;2078084;28;20026;-82
2023/02/14 00:31:24;;;;;;;46.63;28.17;;;6.10;99.90;;;;;;2083904;28;20025;-82
2023/02/14 00:32:25;;;;;;;47.65;28.40;;;6.00;99.90;;;;;;2087234;28;20021;-82
2023/02/14 00:33:27;;;;;;;46.85;28.23;;;6.10;99.90;;;;;;2079693;28;20022;-81
2023/02/14 00:34:28;;;;;;;49.42;28.30;;;6.10;99.90;;;;;;2085666;28;20704;-81
2023/02/14 00:35:29;;;;;;;46.20;28.10;;;6.00;99.90;;;;;;2079130;28;20540;-81
2023/02/14 00:36:29;;;;;;;44.50;26.40;;;6.10;99.90;;;;;;2091963;28;20044;-81
2023/02/14 00:37:30;;;;;;;45.63;27.05;;;6.10;99.90;;;;;;2093449;28;20017;-81
2023/02/14 00:38:30;;;;;;;44.67;27.08;;;6.10;99.90;;;;;;2094018;28;20075;-82
2023/02/14 00:39:32;;;;;;;44.88;26.33;;;6.10;99.90;;;;;;2085628;28;20017;-78
2023/02/14 00:40:32;;;;;;;42.92;26.10;;;6.10;99.90;;;;;;2081090;28;20029;-80
2023/02/14 00:41:33;;;;;;;43.30;26.33;;;6.10;99.90;;;;;;2095072;28;20025;-83
2023/02/14 00:42:34;;;;;;;42.35;26.30;;;6.10;99.90;;;;;;2085882;28;20076;-83
2023/02/14 00:43:34;;;;;;;43.40;26.25;;;6.10;99.90;;;;;;2085354;28;20013;-83
2023/02/14 00:44:36;;;;;;;42.85;26.20;;;6.10;99.90;;;;;;2080331;28;20044;-84
2023/02/14 00:45:38;;;;;;;41.78;26.15;;;6.10;99.90;;;;;;2088429;28;20029;-84
2023/02/14 00:46:39;;;;;;;44.75;26.58;;;6.10;99.90;;;;;;2097756;28;20036;-84
2023/02/14 00:47:40;;;;;;;41.17;25.50;;;6.10;99.90;;;;;;2094432;28;20021;-85
2023/02/14 00:48:44;;;;;;;41.28;26.02;;;6.10;99.90;;;;;;2083515;28;20073;-83
2023/02/14 00:49:44;;;;;;;43.17;26.17;;;6.10;99.90;;;;;;2071460;28;20061;-84
2023/02/14 00:50:45;;;;;;;47.80;27.60;;;6.10;99.90;;;;;;2075170;28;20022;-84
2023/02/14 00:51:46;;;;;;;48.03;28.63;;;6.10;99.90;;;;;;2093140;28;20029;-84
2023/02/14 00:52:46;;;;;;;50.85;29.70;;;6.10;99.90;;;;;;2108053;28;20035;-83
2023/02/14 00:53:48;;;;;;;51.10;30.42;;;6.10;99.90;;;;;;2086849;28;20029;-83
2023/02/14 00:54:48;;;;;;;51.20;30.02;;;6.10;99.90;;;;;;2092106;28;20033;-82
2023/02/14 00:55:49;;;;;;;48.05;28.65;;;6.10;99.90;;;;;;2093245;28;20040;-82
2023/02/14 00:56:50;;;;;;;47.42;28.08;;;6.10;99.90;;;;;;2092719;28;20093;-83
2023/02/14 00:57:50;;;;;;;46.75;28.23;;;6.10;99.90;;;;;;2076675;28;20100;-82
2023/02/14 00:58:51;;;;;;;46.88;27.63;;;6.10;99.90;;;;;;2075569;28;20014;-84
2023/02/14 00:59:51;;;;;;;45.15;27.80;;;6.10;99.90;;;;;;2086920;28;20025;-82
2023/02/14 01:00:52;;;;;;;44.28;26.70;;;6.10;99.90;;;;;;2091884;28;20705;-83
2023/02/14 01:01:53;;;;;;;45.22;27.13;;;6.10;99.90;;;;;;2077405;28;20419;-82
2023/02/14 01:02:54;;;;;;;42.17;26.63;;;6.10;99.90;;;;;;2083516;28;20032;-82
2023/02/14 01:03:55;;;;;;;45.80;27.13;;;6.10;99.90;;;;;;2092306;28;20530;-82
2023/02/14 01:04:55;;;;;;;45.15;26.48;;;6.10;99.90;;;;;;2069463;28;20041;-83
2023/02/14 01:05:56;;;;;;;43.13;26.25;;;6.10;99.90;;;;;;2083438;28;20080;-81
2023/02/14 01:06:57;;;;;;;42.97;26.10;;;6.10;99.90;;;;;;2095781;28;20103;-83
2023/02/14 01:07:57;;;;;;;42.47;26.13;;;6.10;99.90;;;;;;2076772;28;20392;-83
2023/02/14 01:08:58;;;;;;;43.60;27.08;;;6.10;99.90;;;;;;2081039;28;20963;-82
2023/02/14 01:09:59;;;;;;;45.47;27.17;;;6.10;99.90;;;;;;2084324;28;20029;-83
2023/02/14 01:11:08;;;;;;;44.00;26.13;;;6.10;99.90;;;;;;2074774;28;20021;-83
2023/02/14 01:12:09;;;;;;;46.45;26.15;;;6.10;99.90;;;;;;2074883;28;20554;-81
2023/02/14 01:13:11;;;;;;;43.53;25.85;;;6.10;99.90;;;;;;2078333;28;20028;-81
2023/02/14 01:14:11;;;;;;;42.53;26.33;;;6.10;99.90;;;;;;2068833;28;20026;-80
2023/02/14 01:15:12;;;;;;;44.63;26.15;;;6.10;99.90;;;;;;2085412;28;20082;-80
2023/02/14 01:16:16;;;;;;;48.17;27.38;;;6.10;99.90;;;;;;2082429;28;20033;-81
2023/02/14 01:17:16;;;;;;;47.83;28.08;;;6.10;99.90;;;;;;2078025;28;20116;-80
2023/02/14 01:18:18;;;;;;;47.75;28.08;;;6.10;99.90;;;;;;2092640;28;20047;-80
2023/02/14 01:19:21;;;;;;;50.67;28.10;;;6.10;99.90;;;;;;2092919;28;20110;-81
2023/02/14 01:20:25;;;;;;;49.80;28.30;;;6.10;99.90;;;;;;2084241;28;20033;-82
2023/02/14 01:21:32;;;;;;;52.63;29.67;;;6.00;99.90;;;;;;2075840;28;20124;-81
2023/02/14 01:22:39;;;;;;;46.97;28.23;;;6.00;99.90;;;;;;2076020;28;20479;-81
2023/02/14 01:23:41;;;;;;;48.90;29.27;;;6.00;99.90;;;;;;2084398;28;20504;-80
2023/02/14 01:24:41;;;;;;;46.60;27.92;;;6.00;99.90;;;;;;2091087;28;20079;-82
2023/02/14 01:25:45;;;;;;;46.72;28.33;;;6.00;99.90;;;;;;2074704;28;20025;-81
2023/02/14 01:26:46;;;;;;;48.35;29.08;;;5.90;99.90;;;;;;2083720;28;20079;-81
2023/02/14 01:27:46;;;;;;;45.97;27.55;;;5.90;99.90;;;;;;2086980;28;20032;-82
2023/02/14 01:28:47;;;;;;;46.95;27.90;;;6.00;99.90;;;;;;2070746;28;20612;-82
2023/02/14 01:29:51;;;;;;;45.60;27.88;;;5.90;99.90;;;;;;2074612;28;20029;-81
2023/02/14 01:30:52;;;;;;;45.72;27.73;;;5.90;99.90;;;;;;2069133;28;20022;-82
2023/02/14 01:31:53;;;;;;;45.70;27.13;;;6.00;99.90;;;;;;2059784;28;20576;-82
2023/02/14 01:32:53;;;;;;;45.50;27.73;;;5.90;99.90;;;;;;2075878;28;20492;-81
2023/02/14 01:33:55;;;;;;;47.13;27.42;;;6.00;99.90;;;;;;2083044;28;20024;-82
2023/02/14 01:34:56;;;;;;;43.70;26.77;;;6.00;99.90;;;;;;2076342;28;20021;-81
2023/02/14 01:35:57;;;;;;;46.40;27.63;;;6.00;99.90;;;;;;2083884;28;20440;-81
2023/02/14 01:36:57;;;;;;;45.28;27.63;;;6.00;99.90;;;;;;2100231;28;20202;-82
2023/02/14 01:37:58;;;;;;;45.40;27.20;;;6.00;99.90;;;;;;2074691;28;20029;-81
2023/02/14 01:39:02;;;;;;;45.55;28.10;;;6.00;99.90;;;;;;2058170;28;20670;-81
2023/02/14 01:40:07;;;;;;;45.42;26.83;;;6.00;99.90;;;;;;2064561;28;20485;-81
2023/02/14 01:41:07;;;;;;;45.97;27.92;;;6.00;99.90;;;;;;2084334;28;20044;-80
2023/02/14 01:42:10;;;;;;;47.00;28.40;;;6.00;99.90;;;;;;2082277;28;20044;-80
2023/02/14 01:43:14;;;;;;;45.95;28.50;;;6.00;99.90;;;;;;2071242;28;20033;-81
2023/02/14 01:44:15;;;;;;;46.55;27.42;;;6.00;99.90;;;;;;2075998;28;20036;-81
2023/02/14 01:45:20;;;;;;;47.40;28.33;;;5.90;99.90;;;;;;2071087;28;20021;-81
2023/02/14 01:46:21;;;;;;;48.60;28.77;;;5.90;99.90;;;;;;2088390;28;20056;-82
2023/02/14 01:47:24;;;;;;;46.80;28.52;;;5.90;99.90;;;;;;2085924;28;20531;-81
2023/02/14 01:48:25;;;;;;;48.65;28.25;;;6.00;99.90;;;;;;2094825;28;20032;-81
2023/02/14 01:49:38;;;;;;;46.88;27.70;;;6.00;99.90;;;;;;2084630;28;20086;-81
2023/02/14 01:50:43;;;;;;;49.22;29.20;;;6.00;99.90;;;;;;2082615;28;20024;-81
2023/02/14 01:51:53;;;;;;;51.45;30.20;;;6.00;99.90;;;;;;2080520;28;20021;-81
2023/02/14 01:53:00;;;;;;;47.75;28.90;;;5.90;99.90;;;;;;2082395;28;20048;-82
2023/02/14 01:54:02;;;;;;;47.35;28.52;;;5.90;99.90;;;;;;2074759;28;20538;-81
2023/02/14 01:55:08;;;;;;;47.35;29.13;;;5.90;99.90;;;;;;2081223;28;20467;-81
2023/02/14 01:56:17;;;;;;;46.25;28.40;;;5.90;99.90;;;;;;2079314;28;20058;-81
2023/02/14 01:57:20;;;;;;;48.05;28.50;;;5.90;99.90;;;;;;2068309;28;20552;-81
2023/02/14 01:58:24;;;;;;;45.08;28.08;;;5.80;99.90;;;;;;2063518;28;20052;-81
2023/02/14 01:59:29;;;;;;;47.20;27.90;;;5.90;99.90;;;;;;2069891;28;20057;-81
2023/02/14 02:01:52;;;;;;;43.85;26.85;;;5.90;99.90;;;;;;2075244;28;20033;-81
2023/02/14 02:02:53;;;;;;;47.15;27.77;;;5.90;99.90;;;;;;2077724;28;20029;-79
2023/02/14 02:03:59;;;;;;;42.90;26.33;;;5.90;99.90;;;;;;2075784;28;20021;-81
2023/02/14 02:04:59;;;;;;;45.45;26.23;;;5.90;99.90;;;;;;2083135;28;20819;-82
2023/02/14 02:06:24;;;;;;;43.38;26.27;;;6.00;99.90;;;;;;2080192;28;20132;-82
2023/02/14 02:07:26;;;;;;;44.13;26.77;;;5.90;99.90;;;;;;2071586;28;20163;-81
2023/02/14 02:08:27;;;;;;;44.58;26.75;;;6.00;99.90;;;;;;2083230;28;20466;-82
2023/02/14 02:09:41;;;;;;;42.20;26.05;;;5.90;99.90;;;;;;2070068;28;20072;-81
2023/02/14 02:10:41;;;;;;;43.28;26.45;;;5.90;99.90;;;;;;2075795;28;20043;-81
2023/02/14 02:11:42;;;;;;;44.75;26.77;;;6.00;99.90;;;;;;2076727;28;20029;-81
2023/02/14 02:12:43;;;;;;;44.03;26.60;;;5.90;99.90;;;;;;2088162;28;20525;-81
2023/02/14 02:13:44;;;;;;;45.03;27.67;;;6.00;99.90;;;;;;2075315;28;20069;-82
2023/02/14 02:14:45;;;;;;;45.08;27.25;;;6.00;99.90;;;;;;2079009;28;20072;-82
2023/02/14 02:15:57;;;;;;;45.75;27.52;;;6.00;99.90;;;;;;2078989;28;20081;-82
2023/02/14 02:17:30;;;;;;;47.08;27.60;;;6.00;99.90;;;;;;2072650;28;20017;-81
2023/02/14 02:18:56;;;;;;;47.85;28.42;;;5.90;99.90;;;;;;2080385;28;20021;-81
2023/02/14 02:20:53;;;;;;;48.25;27.65;;;6.00;99.90;;;;;;2082103;28;20028;-81
2023/02/14 02:22:24;;;;;;;45.60;27.35;;;5.90;99.90;;;;;;2078853;28;20048;-81
2023/02/14 02:23:44;;;;;;;44.72;26.77;;;6.00;99.90;;;;;;2072523;28;20037;-82
2023/02/14 02:25:06;;;;;;;43.30;26.20;;;6.00;99.90;;;;;;2095475;28;20066;-81
2023/02/14 02:26:12;;;;;;;45.97;27.10;;;5.90;99.90;;;;;;2086560;28;20035;-82
2023/02/14 02:27:25;;;;;;;46.83;27.30;;;5.90;99.90;;;;;;2074419;28;20659;-81
2023/02/14 02:28:49;;;;;;;42.03;25.98;;;5.90;99.90;;;;;;2074144;28;20040;-81
2023/02/14 02:30:21;;;;;;;47.33;27.05;;;5.90;99.90;;;;;;2071857;28;20034;-80
2023/02/14 02:31:52;;;;;;;46.55;28.17;;;5.90;99.90;;;;;;2084561;28;20065;-81
2023/02/14 02:33:24;;;;;;;49.65;28.67;;;5.80;99.90;;;;;;2061678;28;20034;-82
2023/02/14 02:34:37;;;;;;;51.35;28.73;;;5.80;99.90;;;;;;2076317;28;20031;-80
2023/02/14 02:36:14;;;;;;;51.55;29.27;;;5.80;99.90;;;;;;2087426;28;20025;-80
2023/02/14 02:37:23;;;;;;;51.28;28.95;;;5.80;99.90;;;;;;2071384;28;20046;-82
2023/02/14 02:38:52;;;;;;;49.10;28.42;;;5.80;99.90;;;;;;2086000;28;20716;-82
2023/02/14 02:40:11;;;;;;;49.83;27.88;;;5.80;99.90;;;;;;2077790;28;20029;-82
2023/02/14 02:41:30;;;;;;;47.08;27.40;;;5.80;99.90;;;;;;2082972;28;20569;-82
2023/02/14 02:42:56;;;;;;;50.08;29.15;;;5.80;99.90;;;;;;2089423;28;20031;-81
2023/02/14 02:44:36;;;;;;;49.90;28.92;;;5.80;99.90;;;;;;2085588;28;20108;-81
2023/02/14 02:46:46;;;;;;;52.72;29.45;;;5.80;99.90;;;;;;2072171;28;20068;-81
2023/02/14 02:47:20;;;;;;;50.53;28.73;;;5.80;99.90;;;;;;2076030;28;20033;-80
2023/02/14 02:48:24;;;;;;;49.78;28.95;;;5.80;99.90;;;;;;2077275;28;20166;-80
2023/02/14 02:53:01;;;;;;;48.45;28.23;;;5.80;99.90;;;;;;2074228;28;20037;-79
2023/02/14 02:54:15;;;;;;;47.75;27.65;;;5.80;99.90;;;;;;2085604;28;20021;-79
2023/02/14 02:56:44;;;;;;;49.50;28.52;;;5.80;99.90;;;;;;2072342;28;20053;-81
2023/02/14 02:56:56;;;;;;;49.45;27.98;;;5.80;99.90;;;;;;2096057;28;20035;-82
2023/02/14 02:57:59;;;;;;;51.92;29.23;;;5.80;99.90;;;;;;2089650;28;20033;-82
2023/02/14 02:59:05;;;;;;;48.90;29.45;;;5.80;99.90;;;;;;2079614;28;20029;-81
2023/02/14 03:00:08;;;;;;;48.08;28.95;;;5.80;99.90;;;;;;2075729;28;20079;-81
2023/02/14 03:01:16;;;;;;;48.90;28.77;;;5.80;99.90;;;;;;2078369;28;20078;-80
2023/02/14 03:02:21;;;;;;;48.85;28.65;;;5.80;99.90;;;;;;2087507;28;20032;-80
2023/02/14 03:04:52;;;;;;;50.78;29.10;;;5.80;99.90;;;;;;2078031;28;20029;-79
2023/02/14 03:05:53;;;;;;;48.08;28.52;;;5.80;99.90;;;;;;2094485;28;20039;-80
2023/02/14 03:06:54;;;;;;;49.38;27.98;;;5.80;99.90;;;;;;2086701;28;20108;-81
2023/02/14 03:07:54;;;;;;;45.55;26.85;;;5.80;99.90;;;;;;2076183;28;20032;-81
2023/02/14 03:08:55;;;;;;;47.38;28.30;;;5.80;99.90;;;;;;2089931;28;20025;-82
2023/02/14 03:09:59;;;;;;;46.47;27.67;;;5.80;99.90;;;;;;2066930;28;20065;-81
2023/02/14 03:11:02;;;;;;;48.15;28.70;;;5.80;99.90;;;;;;2072180;28;20144;-81
2023/02/14 03:12:27;;;;;;;48.00;28.98;;;5.80;99.90;;;;;;2072647;28;20026;-81
2023/02/14 03:14:09;;;;;;;51.03;29.05;;;5.80;99.90;;;;;;2068525;28;20065;-81
2023/02/14 03:15:29;;;;;;;52.03;30.08;;;5.80;99.90;;;;;;2075610;28;20036;-81
2023/02/14 03:17:00;;;;;;;53.88;30.52;;;5.80;99.90;;;;;;2075961;28;20064;-81
2023/02/14 03:20:16;;;;;;;51.95;28.35;;;5.70;99.90;;;;;;2094275;28;20061;-80
2023/02/14 03:21:38;;;;;;;48.70;27.67;;;5.70;99.90;;;;;;2082381;28;20041;-82
2023/02/14 03:22:47;;;;;;;49.70;27.90;;;5.70;99.90;;;;;;2076397;28;20029;-81
2023/02/14 03:24:12;;;;;;;50.42;29.25;;;5.70;99.90;;;;;;2084055;28;20033;-82
2023/02/14 03:26:02;;;;;;;45.25;27.42;;;5.70;99.90;;;;;;2091575;28;20021;-82
2023/02/14 03:27:06;;;;;;;51.10;28.08;;;5.70;99.90;;;;;;2080860;28;20488;-82
2023/02/14 03:28:17;;;;;;;50.60;29.48;;;5.70;99.90;;;;;;2081111;28;20079;-82
2023/02/14 03:29:46;;;;;;;50.55;28.73;;;5.70;99.90;;;;;;2085936;28;20104;-82
2023/02/14 03:31:03;;;;;;;50.85;29.27;;;5.70;99.90;;;;;;2091160;28;20028;-81
2023/02/14 03:32:28;;;;;;;50.08;28.92;;;5.70;99.90;;;;;;2083307;28;20029;-81
2023/02/14 03:33:46;;;;;;;51.78;29.13;;;5.80;99.90;;;;;;2077574;28;20029;-81
2023/02/14 03:34:56;;;;;;;52.55;29.70;;;5.80;99.90;;;;;;2076210;28;20063;-80
2023/02/14 03:36:09;;;;;;;50.10;29.77;;;5.80;99.90;;;;;;2079090;28;20025;-81
2023/02/14 03:37:16;;;;;;;55.25;29.88;;;5.80;99.90;;;;;;2092130;28;20043;-81
2023/02/14 03:38:35;;;;;;;49.45;28.80;;;5.70;99.90;;;;;;2084915;28;20538;-81
2023/02/14 03:39:39;;;;;;;51.08;28.80;;;5.80;99.90;;;;;;2080918;28;20112;-81
2023/02/14 03:40:53;;;;;;;52.25;29.17;;;5.70;99.90;;;;;;2086404;28;20372;-80
2023/02/14 03:42:05;;;;;;;54.53;29.98;;;5.80;99.90;;;;;;2081715;28;20021;-80
2023/02/14 03:43:09;;;;;;;51.15;29.20;;;5.80;99.90;;;;;;2074013;28;20112;-80
2023/02/14 03:44:11;;;;;;;48.15;28.25;;;5.80;99.90;;;;;;2078565;28;20029;-80
2023/02/14 03:45:18;;;;;;;48.08;28.27;;;5.80;99.90;;;;;;2084650;28;20079;-81
2023/02/14 03:46:45;;;;;;;50.80;28.95;;;5.80;99.90;;;;;;2069342;28;20718;-81
2023/02/14 03:47:49;;;;;;;48.67;28.17;;;5.70;99.90;;;;;;2081834;28;20492;-80
2023/02/14 03:48:53;;;;;;;49.65;28.58;;;5.80;99.90;;;;;;2090361;28;20568;-82
2023/02/14 03:49:59;;;;;;;49.92;28.08;;;5.80;99.90;;;;;;2082360;28;20021;-80
2023/02/14 03:51:02;;;;;;;49.25;27.55;;;5.80;99.90;;;;;;2080743;28;20082;-80
2023/02/14 03:52:04;;;;;;;49.88;28.15;;;5.80;99.90;;;;;;2093111;28;20036;-80
2023/02/14 03:53:07;;;;;;;48.35;26.90;;;5.80;99.90;;;;;;2086886;28;20664;-80
2023/02/14 03:54:11;;;;;;;48.33;28.33;;;5.80;99.90;;;;;;2077211;28;20045;-80
2023/02/14 03:55:16;;;;;;;50.15;29.20;;;5.80;99.90;;;;;;2077332;28;20029;-81
2023/02/14 03:56:36;;;;;;;51.35;30.50;;;5.80;99.90;;;;;;2085215;28;20510;-81
2023/02/14 03:57:41;;;;;;;52.72;30.58;;;5.80;99.90;;;;;;2075949;28;20045;-82
2023/02/14 03:58:47;;;;;;;51.45;30.02;;;5.80;99.90;;;;;;2080032;28;20033;-82
2023/02/14 03:59:47;;;;;;;50.53;29.13;;;5.70;99.90;;;;;;2082790;28;20127;-82
2023/02/14 04:00:50;;;;;;;52.55;29.75;;;5.70;99.90;;;;;;2080438;28;20021;-81
2023/02/14 04:02:05;;;;;;;52.83;30.63;;;5.70;99.90;;;;;;2080603;28;20029;-81
2023/02/14 04:03:10;;;;;;;50.50;29.05;;;5.70;99.90;;;;;;2080069;28;20726;-81
2023/02/14 04:04:14;;;;;;;48.67;28.67;;;5.70;99.90;;;;;;2081796;28;20060;-81
2023/02/14 04:05:19;;;;;;;48.33;28.85;;;5.60;99.90;;;;;;2088500;28;20060;-81
2023/02/14 04:06:20;;;;;;;49.03;28.05;;;5.70;99.90;;;;;;2070621;28;20030;-81
2023/02/14 04:07:22;;;;;;;51.80;30.60;;;5.70;99.90;;;;;;2074687;28;20035;-81
2023/02/14 04:08:25;;;;;;;51.67;30.15;;;5.70;99.90;;;;;;2088400;28;20128;-81
2023/02/14 04:09:26;;;;;;;56.17;32.08;;;5.70;99.90;;;;;;2079602;28;20033;-82
2023/02/14 04:10:27;;;;;;;55.22;31.63;;;5.70;99.90;;;;;;2093150;28;20070;-82
2023/02/14 04:11:27;;;;;;;54.40;31.85;;;5.70;99.90;;;;;;2080287;28;20117;-81
2023/02/14 04:12:28;;;;;;;51.42;30.08;;;5.70;99.90;;;;;;2086160;28;20151;-82
2023/02/14 04:13:29;;;;;;;51.10;29.83;;;5.70;99.90;;;;;;2102460;28;20458;-83
2023/02/14 04:14:29;;;;;;;51.97;29.95;;;5.70;99.90;;;;;;2087117;28;20045;-82
2023/02/14 04:15:30;;;;;;;52.58;30.35;;;5.70;99.90;;;;;;2088896;28;20025;-81
2023/02/14 04:19:21;;;;;;;52.45;30.83;;;5.70;99.90;;;;;;2082657;28;20029;-83
2023/02/14 04:19:22;;;;;;;47.83;28.40;;;5.70;99.90;;;;;;2096818;28;20107;-84
2023/02/14 04:20:23;;;;;;;49.25;28.63;;;5.70;99.90;;;;;;2087485;28;20088;-83
2023/02/14 04:21:24;;;;;;;50.47;28.65;;;5.80;99.90;;;;;;2084302;28;20025;-84
2023/02/14 04:22:24;;;;;;;48.22;28.58;;;5.70;99.90;;;;;;2100397;28;20096;-83
2023/02/14 04:23:25;;;;;;;49.97;28.30;;;5.70;99.90;;;;;;2099618;28;20501;-83
2023/02/14 04:24:25;;;;;;;48.05;28.45;;;5.70;99.90;;;;;;2079790;28;20057;-83
2023/02/14 04:25:27;;;;;;;46.78;27.15;;;5.70;99.90;;;;;;2084730;28;20503;-83
2023/02/14 04:26:27;;;;;;;53.53;29.55;;;5.70;99.90;;;;;;2085934;28;20033;-82
2023/02/14 04:27:28;;;;;;;53.97;31.25;;;5.70;99.90;;;;;;2080618;28;20194;-81
2023/02/14 04:28:29;;;;;;;55.90;30.75;;;5.70;99.90;;;;;;2082305;28;20129;-80
2023/02/14 04:29:30;;;;;;;53.83;31.23;;;5.70;99.90;;;;;;2085674;28;20116;-83
2023/02/14 04:30:30;;;;;;;56.55;32.70;;;5.70;99.90;;;;;;2084002;28;20033;-81
2023/02/14 04:31:31;;;;;;;54.90;31.70;;;5.70;99.90;;;;;;2085726;28;20021;-80
2023/02/14 04:32:31;;;;;;;55.53;31.33;;;5.60;99.90;;;;;;2080497;28;20028;-81
2023/02/14 04:33:32;;;;;;;52.83;30.48;;;5.50;99.90;;;;;;2082491;28;20100;-82
2023/02/14 04:34:33;;;;;;;51.63;30.42;;;5.50;99.90;;;;;;2076530;28;20063;-81
2023/02/14 04:35:34;;;;;;;52.30;29.50;;;5.60;99.90;;;;;;2065283;28;20045;-80
2023/02/14 04:36:34;;;;;;;54.28;31.40;;;5.50;99.90;;;;;;2073818;28;20043;-81
2023/02/14 04:37:35;;;;;;;53.70;31.23;;;5.60;99.90;;;;;;2086819;28;20025;-82
2023/02/14 04:38:36;;;;;;;52.22;30.45;;;5.60;99.90;;;;;;2095843;28;20050;-81
2023/02/14 04:39:37;;;;;;;50.72;29.88;;;5.50;99.90;;;;;;2087752;28;20029;-82
2023/02/14 04:40:37;;;;;;;50.33;29.92;;;5.60;99.90;;;;;;2079442;28;20025;-81
2023/02/14 04:41:38;;;;;;;51.58;29.17;;;5.60;99.90;;;;;;2076168;28;20104;-80
2023/02/14 04:42:38;;;;;;;52.08;29.63;;;5.50;99.90;;;;;;2078351;28;20039;-80
2023/02/14 04:43:39;;;;;;;51.47;29.67;;;5.60;99.90;;;;;;2070879;28;20040;-83
2023/02/14 04:44:40;;;;;;;48.83;28.92;;;5.60;99.90;;;;;;2059803;28;20038;-82
2023/02/14 04:45:40;;;;;;;49.75;29.02;;;5.60;99.90;;;;;;2070125;28;20034;-82
2023/02/14 04:46:41;;;;;;;50.50;29.15;;;5.60;99.90;;;;;;2079606;28;20492;-81
2023/02/14 04:47:41;;;;;;;52.17;29.73;;;5.60;99.90;;;;;;2089171;28;20495;-81
2023/02/14 04:48:42;;;;;;;55.55;31.50;;;5.60;99.90;;;;;;2080121;28;20034;-80
2023/02/14 04:49:43;;;;;;;56.35;32.08;;;5.60;99.90;;;;;;2080846;28;20049;-81
2023/02/14 04:50:43;;;;;;;53.35;29.85;;;5.60;99.90;;;;;;2080112;28;20463;-79
2023/02/14 04:51:44;;;;;;;51.30;30.13;;;5.60;99.90;;;;;;2080896;28;20021;-80
2023/02/14 04:52:44;;;;;;;53.85;30.55;;;5.60;99.90;;;;;;2080400;28;20025;-80
2023/02/14 04:53:45;;;;;;;51.92;29.15;;;5.70;99.90;;;;;;2078547;28;20496;-80
2023/02/14 04:54:47;;;;;;;50.80;29.85;;;5.60;99.90;;;;;;2078349;28;20032;-81
2023/02/14 04:55:48;;;;;;;56.70;31.65;;;5.60;99.90;;;;;;2079076;28;20464;-81
2023/02/14 04:56:49;;;;;;;55.40;31.27;;;5.60;99.90;;;;;;2082106;28;20408;-82
2023/02/14 04:57:50;;;;;;;55.60;31.88;;;5.60;99.90;;;;;;2076375;28;20026;-81
2023/02/14 04:58:50;;;;;;;55.25;30.77;;;5.60;99.90;;;;;;2081250;28;20578;-78
2023/02/14 04:59:51;;;;;;;56.83;31.60;;;5.60;99.90;;;;;;2079989;28;20068;-79
2023/02/14 05:00:51;;;;;;;56.08;32.08;;;5.60;99.90;;;;;;2085181;28;20028;-77
2023/02/14 05:01:53;;;;;;;55.72;30.38;;;5.60;99.90;;;;;;2078506;28;20017;-78
2023/02/14 05:02:53;;;;;;;49.90;29.38;;;5.60;99.90;;;;;;2077989;28;20369;-79
2023/02/14 05:03:54;;;;;;;53.45;30.75;;;5.60;99.90;;;;;;2094520;28;20029;-80
2023/02/14 05:04:55;;;;;;;59.63;33.00;;;5.60;99.90;;;;;;2078184;28;20029;-80
2023/02/14 05:05:55;;;;;;;60.15;33.83;;;5.60;99.90;;;;;;2081712;28;20112;-82
2023/02/14 05:06:56;;;;;;;58.03;33.55;;;5.60;99.90;;;;;;2075207;28;20818;-81
2023/02/14 05:07:56;;;;;;;60.00;33.70;;;5.60;99.90;;;;;;2087636;28;20024;-81
2023/02/14 05:08:57;;;;;;;60.00;33.65;;;5.60;99.90;;;;;;2087421;28;20512;-80
2023/02/14 05:09:57;;;;;;;66.15;36.35;;;5.60;99.90;;;;;;2080634;28;20802;-81
2023/02/14 05:10:58;;;;;;;64.38;34.80;;;5.60;99.90;;;;;;2093278;28;20241;-81
2023/02/14 05:11:59;;;;;;;59.92;34.00;;;5.60;99.90;;;;;;2086056;28;20032;-79
2023/02/14 05:13:00;;;;;;;61.33;34.20;;;5.50;99.90;;;;;;2076087;28;20032;-81
2023/02/14 05:14:01;;;;;;;60.67;33.40;;;5.60;99.90;;;;;;2072515;28;20610;-80
2023/02/14 05:15:01;;;;;;;59.42;33.33;;;5.60;99.90;;;;;;2079246;28;20112;-79
2023/02/14 05:16:03;;;;;;;57.28;31.85;;;5.60;99.90;;;;;;2066608;28;20504;-81
2023/02/14 05:17:03;;;;;;;58.30;32.03;;;5.60;99.90;;;;;;2078813;28;20415;-79
2023/02/14 05:18:04;;;;;;;57.17;32.17;;;5.60;99.90;;;;;;2088278;28;20040;-80
2023/02/14 05:19:05;;;;;;;50.55;30.38;;;5.60;99.90;;;;;;2076251;28;20577;-80
2023/02/14 05:20:06;;;;;;;52.40;29.42;;;5.60;99.90;;;;;;2074705;28;20037;-81
2023/02/14 05:21:07;;;;;;;51.60;30.00;;;5.60;99.90;;;;;;2086404;28;20033;-81
2023/02/14 05:22:07;;;;;;;48.38;29.02;;;5.60;99.90;;;;;;2078703;28;20077;-79
2023/02/14 05:23:12;;;;;;;54.88;30.83;;;5.60;99.90;;;;;;2080844;28;20037;-80
2023/02/14 05:24:13;;;;;;;48.35;28.88;;;5.60;99.90;;;;;;2075202;28;20021;-79
2023/02/14 05:25:13;;;;;;;52.50;30.63;;;5.50;99.90;;;;;;2083856;28;20036;-79
2023/02/14 05:26:14;;;;;;;50.38;29.48;;;5.50;99.90;;;;;;2086988;28;20639;-81
2023/02/14 05:27:14;;;;;;;49.63;29.55;;;5.50;99.90;;;;;;2074920;28;20034;-81
2023/02/14 05:28:15;;;;;;;49.38;29.08;;;5.50;99.90;;;;;;2089352;28;20059;-80
2023/02/14 05:29:16;;;;;;;47.80;29.10;;;5.50;99.90;;;;;;2078774;28;20037;-81
2023/02/14 05:30:17;;;;;;;49.63;29.25;;;5.50;99.90;;;;;;2078492;28;20025;-80
2023/02/14 05:31:17;;;;;;;48.25;28.77;;;5.50;99.90;;;;;;2069971;28;20037;-80
2023/02/14 05:32:18;;;;;;;46.05;28.48;;;5.50;99.90;;;;;;2078333;28;20118;-80
2023/02/14 05:33:18;;;;;;;47.63;28.08;;;5.50;99.90;;;;;;2091068;28;20063;-79
2023/02/14 05:34:19;;;;;;;45.63;28.15;;;5.50;99.90;;;;;;2092926;28;20443;-81
2023/02/14 05:35:19;;;;;;;44.65;27.50;;;5.50;99.90;;;;;;2083530;28;20778;-79
2023/02/14 05:36:20;;;;;;;45.45;28.13;;;5.50;99.90;;;;;;2077768;28;20064;-80
2023/02/14 05:37:21;;;;;;;43.75;27.60;;;5.60;99.90;;;;;;2079913;28;20033;-81
2023/02/14 05:38:21;;;;;;;47.03;27.63;;;5.60;99.90;;;;;;2084683;28;20028;-81
2023/02/14 05:39:22;;;;;;;46.13;27.77;;;5.60;99.90;;;;;;2070808;28;20037;-81
2023/02/14 05:40:22;;;;;;;43.20;26.42;;;5.50;99.90;;;;;;2068791;28;20065;-79
2023/02/14 05:41:23;;;;;;;43.92;26.88;;;5.60;99.90;;;;;;2078454;28;20119;-80
2023/02/14 05:42:24;;;;;;;43.63;27.52;;;5.60;99.90;;;;;;2079959;28;20076;-81
2023/02/14 05:43:25;;;;;;;46.45;27.77;;;5.60;99.90;;;;;;2074633;28;20030;-81
2023/02/14 05:44:25;;;;;;;43.22;26.55;;;5.60;99.90;;;;;;2079901;28;20033;-80
2023/02/14 05:45:26;;;;;;;43.03;26.27;;;5.60;99.90;;;;;;2084739;28;20559;-81